Terminal Aerodrome Forecast
Issued by NWS Mt. Holly, NJ

Home | Current Version | Previous Version | Text Only | Print | Product List | Glossary On
Versions: 1 2 3 4 5 6 7 8 9 10 11 12 13 14 15 16
109
FTUS41 KPHI 040542
TAFACY
TAF
KACY 040542Z 0406/0506 30006KT P6SM BKN050
     FM041400 32009KT P6SM SCT050 BKN250
     FM042300 VRB02KT P6SM OVC120=

USA.gov is the U.S. government's official web portal to all federal, state and local government web resources and services.